createdAt,value
2023-01-25T00:00:18.463Z,429.00
2023-01-25T00:02:28.080Z,469.00
2023-01-25T00:03:27.920Z,434.00
2023-01-25T00:04:27.981Z,432.00
2023-01-25T00:05:27.848Z,431.00
2023-01-25T00:06:27.903Z,428.00
2023-01-25T00:07:27.826Z,429.00
2023-01-25T00:08:29.945Z,427.00
2023-01-25T00:09:27.820Z,429.00
2023-01-25T00:10:27.856Z,428.00
2023-01-25T00:11:27.795Z,428.00
2023-01-25T00:12:51.047Z,428.00
2023-01-25T00:13:27.834Z,429.00
2023-01-25T00:14:27.908Z,429.00
2023-01-25T00:15:27.741Z,428.00
2023-01-25T00:16:31.221Z,427.00
2023-01-25T00:17:27.672Z,430.00
2023-01-25T00:18:28.811Z,429.00
2023-01-25T00:19:27.627Z,430.00
2023-01-25T00:20:27.862Z,429.00
2023-01-25T00:21:27.682Z,426.00
2023-01-25T00:22:27.762Z,426.00
2023-01-25T00:23:27.604Z,427.00
2023-01-25T00:24:27.817Z,428.00
2023-01-25T00:25:27.609Z,429.00
2023-01-25T00:26:27.639Z,428.00
2023-01-25T00:27:27.552Z,427.00
2023-01-25T00:28:29.690Z,429.00
2023-01-25T00:29:27.509Z,428.00
2023-01-25T00:30:27.605Z,428.00
2023-01-25T00:31:27.596Z,428.00
2023-01-25T00:32:27.724Z,427.00
2023-01-25T00:33:27.525Z,429.00
2023-01-25T00:34:28.667Z,430.00
2023-01-25T00:35:27.435Z,432.00
2023-01-25T00:36:27.617Z,431.00
2023-01-25T00:37:27.425Z,430.00
2023-01-25T00:38:27.562Z,430.00
2023-01-25T00:39:27.382Z,432.00
2023-01-25T00:40:28.522Z,431.00
2023-01-25T00:41:27.374Z,432.00
2023-01-25T00:42:28.647Z,433.00
2023-01-25T00:43:27.342Z,434.00
2023-01-25T00:44:27.760Z,435.00
2023-01-25T00:45:27.596Z,432.00
2023-01-25T00:46:27.431Z,434.00
2023-01-25T00:47:27.286Z,433.00
2023-01-25T00:48:27.465Z,435.00
2023-01-25T00:49:27.269Z,431.00
2023-01-25T00:50:27.483Z,430.00
2023-01-25T00:51:27.269Z,431.00
2023-01-25T00:52:32.704Z,429.00
2023-01-25T00:53:27.199Z,430.00
2023-01-25T00:54:27.276Z,431.00
2023-01-25T00:55:27.195Z,430.00
2023-01-25T00:56:27.301Z,429.00
2023-01-25T00:57:27.136Z,428.00
2023-01-25T00:58:29.330Z,430.00
2023-01-25T00:59:27.206Z,429.00
2023-01-25T01:00:27.463Z,431.00
2023-01-25T01:01:27.190Z,431.00
2023-01-25T01:02:27.295Z,431.00
2023-01-25T01:03:26.962Z,432.00
2023-01-25T01:04:27.146Z,433.00
2023-01-25T01:05:26.939Z,429.00
2023-01-25T01:06:27.073Z,431.00
2023-01-25T01:07:26.912Z,432.00
2023-01-25T01:08:27.012Z,431.00
2023-01-25T01:09:26.903Z,431.00
2023-01-25T01:10:27.093Z,433.00
2023-01-25T01:11:26.873Z,437.00
2023-01-25T01:12:26.873Z,437.00
2023-01-25T01:13:26.830Z,434.00
2023-01-25T01:14:26.913Z,434.00
2023-01-25T01:15:26.816Z,435.00
2023-01-25T01:16:26.927Z,436.00
2023-01-25T01:17:26.782Z,438.00
2023-01-25T01:18:26.886Z,436.00
2023-01-25T01:19:26.750Z,432.00
2023-01-25T01:20:26.921Z,433.00
2023-01-25T01:21:26.733Z,432.00
2023-01-25T01:22:41.140Z,432.00
2023-01-25T01:23:26.699Z,433.00
2023-01-25T01:24:26.836Z,434.00
2023-01-25T01:25:26.690Z,431.00
2023-01-25T01:26:26.874Z,431.00
2023-01-25T01:27:26.649Z,431.00
2023-01-25T01:28:26.810Z,430.00
2023-01-25T01:29:26.627Z,428.00
2023-01-25T01:30:26.803Z,429.00
2023-01-25T01:31:26.720Z,429.00
2023-01-25T01:32:26.788Z,430.00
2023-01-25T01:33:26.575Z,432.00
2023-01-25T01:34:26.724Z,432.00
2023-01-25T01:35:26.540Z,434.00
2023-01-25T01:36:26.719Z,435.00
2023-01-25T01:37:26.528Z,437.00
2023-01-25T01:38:28.739Z,438.00
2023-01-25T01:39:26.512Z,438.00
2023-01-25T01:40:26.633Z,435.00
2023-01-25T01:41:26.470Z,434.00
2023-01-25T01:42:26.515Z,435.00
2023-01-25T01:43:26.446Z,437.00
2023-01-25T01:44:47.526Z,436.00
2023-01-25T01:45:26.417Z,433.00
2023-01-25T01:46:26.532Z,435.00
2023-01-25T01:47:26.398Z,434.00
2023-01-25T01:48:26.520Z,435.00
2023-01-25T01:49:26.374Z,435.00
2023-01-25T01:50:28.437Z,438.00
2023-01-25T01:51:26.344Z,439.00
2023-01-25T01:52:26.448Z,437.00
2023-01-25T01:53:26.317Z,437.00
2023-01-25T01:54:26.428Z,438.00
2023-01-25T01:55:26.288Z,434.00
2023-01-25T01:56:26.555Z,433.00
2023-01-25T01:57:26.270Z,433.00
2023-01-25T01:58:26.464Z,433.00
2023-01-25T01:59:26.227Z,431.00
2023-01-25T02:00:26.326Z,427.00
2023-01-25T02:01:26.252Z,426.00
2023-01-25T02:02:26.374Z,427.00
2023-01-25T02:03:26.187Z,429.00
2023-01-25T02:04:26.353Z,431.00
2023-01-25T02:05:26.180Z,430.00
2023-01-25T02:06:26.335Z,431.00
2023-01-25T02:07:26.142Z,433.00
2023-01-25T02:08:26.172Z,432.00
2023-01-25T02:09:26.168Z,433.00
2023-01-25T02:10:26.247Z,433.00
2023-01-25T02:11:26.086Z,431.00
2023-01-25T02:12:26.146Z,430.00
2023-01-25T02:13:26.081Z,431.00
2023-01-25T02:15:35.463Z,484.00
2023-01-25T02:16:35.354Z,443.00
2023-01-25T02:17:35.562Z,436.00
2023-01-25T02:18:35.313Z,434.00
2023-01-25T02:19:37.517Z,433.00
2023-01-25T02:20:35.293Z,433.00
2023-01-25T02:21:35.514Z,432.00
2023-01-25T02:22:35.270Z,430.00
2023-01-25T02:23:35.293Z,428.00
2023-01-25T02:24:35.242Z,428.00
2023-01-25T02:26:44.821Z,491.00
2023-01-25T02:27:44.605Z,432.00
2023-01-25T02:28:44.640Z,433.00
2023-01-25T02:29:44.568Z,433.00
2023-01-25T02:30:44.711Z,435.00
2023-01-25T02:31:44.695Z,433.00
2023-01-25T02:32:44.669Z,431.00
2023-01-25T02:33:44.528Z,430.00
2023-01-25T02:34:44.677Z,431.00
2023-01-25T02:35:44.503Z,432.00
2023-01-25T02:36:44.689Z,432.00
2023-01-25T02:37:44.499Z,433.00
2023-01-25T02:38:44.578Z,433.00
2023-01-25T02:39:44.441Z,432.00
2023-01-25T02:40:44.562Z,434.00
2023-01-25T02:41:44.429Z,437.00
2023-01-25T02:42:44.496Z,434.00
2023-01-25T02:43:44.401Z,433.00
2023-01-25T02:44:47.757Z,431.00
2023-01-25T02:45:44.367Z,431.00
2023-01-25T02:46:44.460Z,430.00
2023-01-25T02:47:44.346Z,427.00
2023-01-25T02:48:44.400Z,425.00
2023-01-25T02:49:44.326Z,426.00
2023-01-25T02:50:47.666Z,428.00
2023-01-25T02:51:44.289Z,428.00
2023-01-25T02:52:44.367Z,429.00
2023-01-25T02:53:44.257Z,426.00
2023-01-25T02:54:44.406Z,427.00
2023-01-25T02:55:44.257Z,427.00
2023-01-25T02:56:45.264Z,426.00
2023-01-25T02:57:44.216Z,425.00
2023-01-25T02:58:44.274Z,425.00
2023-01-25T02:59:44.194Z,426.00
2023-01-25T03:00:44.307Z,423.00
2023-01-25T03:01:44.209Z,425.00
2023-01-25T03:03:06.257Z,427.00
2023-01-25T03:03:44.146Z,428.00
2023-01-25T03:04:44.175Z,431.00
2023-01-25T03:05:44.105Z,431.00
2023-01-25T03:06:44.219Z,428.00
2023-01-25T03:07:44.105Z,429.00
2023-01-25T03:08:44.144Z,426.00
2023-01-25T03:09:44.055Z,426.00
2023-01-25T03:10:44.185Z,426.00
2023-01-25T03:11:44.032Z,426.00
2023-01-25T03:12:44.227Z,420.00
2023-01-25T03:13:44.018Z,421.00
2023-01-25T03:14:46.144Z,421.00
2023-01-25T03:15:43.975Z,419.00
2023-01-25T03:16:44.099Z,420.00
2023-01-25T03:17:43.945Z,421.00
2023-01-25T03:18:45.063Z,421.00
2023-01-25T03:19:43.956Z,423.00
2023-01-25T03:20:44.063Z,425.00
2023-01-25T03:21:43.909Z,422.00
2023-01-25T03:22:44.094Z,419.00
2023-01-25T03:23:43.873Z,420.00
2023-01-25T03:24:44.966Z,421.00
2023-01-25T03:25:43.854Z,424.00
2023-01-25T03:27:06.940Z,426.00
2023-01-25T03:27:43.815Z,426.00
2023-01-25T03:28:43.919Z,426.00
2023-01-25T03:29:43.793Z,426.00
2023-01-25T03:30:43.932Z,426.00
2023-01-25T03:31:43.896Z,428.00
2023-01-25T03:32:44.799Z,427.00
2023-01-25T03:33:43.749Z,425.00
2023-01-25T03:34:43.829Z,427.00
2023-01-25T03:35:43.712Z,429.00
2023-01-25T03:36:43.845Z,426.00
2023-01-25T03:37:43.716Z,424.00
2023-01-25T03:39:04.760Z,428.00
2023-01-25T03:39:43.661Z,422.00
2023-01-25T03:40:43.820Z,420.00
2023-01-25T03:41:43.633Z,423.00
2023-01-25T03:42:43.749Z,421.00
2023-01-25T03:43:43.650Z,425.00
2023-01-25T03:44:43.690Z,427.00
2023-01-25T03:45:43.582Z,427.00
2023-01-25T03:46:43.747Z,428.00
2023-01-25T03:47:43.560Z,428.00
2023-01-25T03:48:43.660Z,430.00
2023-01-25T03:49:43.560Z,425.00
2023-01-25T03:50:44.719Z,426.00
2023-01-25T03:51:43.503Z,427.00
2023-01-25T03:52:43.621Z,426.00
2023-01-25T03:53:43.472Z,428.00
2023-01-25T03:54:43.566Z,429.00
2023-01-25T03:55:43.470Z,426.00
2023-01-25T03:56:44.531Z,427.00
2023-01-25T03:57:43.434Z,428.00
2023-01-25T03:58:43.533Z,428.00
2023-01-25T03:59:43.401Z,429.00
2023-01-25T04:00:43.504Z,429.00
2023-01-25T04:01:43.401Z,429.00
2023-01-25T04:02:43.583Z,429.00
2023-01-25T04:03:43.354Z,427.00
2023-01-25T04:04:43.442Z,428.00
2023-01-25T04:05:43.319Z,431.00
2023-01-25T04:06:43.479Z,431.00
2023-01-25T04:07:43.308Z,429.00
2023-01-25T04:08:43.411Z,430.00
2023-01-25T04:09:43.271Z,431.00
2023-01-25T04:10:43.340Z,429.00
2023-01-25T04:11:43.238Z,431.00
2023-01-25T04:12:43.379Z,433.00
2023-01-25T04:13:43.245Z,432.00
2023-01-25T04:14:45.128Z,432.00
2023-01-25T04:15:43.187Z,432.00
2023-01-25T04:16:43.397Z,429.00
2023-01-25T04:17:43.160Z,428.00
2023-01-25T04:18:43.177Z,426.00
2023-01-25T04:19:43.158Z,427.00
2023-01-25T04:20:43.299Z,428.00
2023-01-25T04:21:43.107Z,429.00
2023-01-25T04:22:43.259Z,430.00
2023-01-25T04:23:43.084Z,433.00
2023-01-25T04:24:43.187Z,431.00
2023-01-25T04:25:43.067Z,430.00
2023-01-25T04:27:06.216Z,429.00
2023-01-25T04:27:43.035Z,430.00
2023-01-25T04:28:43.058Z,429.00
2023-01-25T04:29:43.006Z,425.00
2023-01-25T04:30:43.099Z,426.00
2023-01-25T04:31:43.129Z,426.00
2023-01-25T04:32:43.234Z,430.00
2023-01-25T04:33:42.945Z,429.00
2023-01-25T04:34:43.071Z,430.00
2023-01-25T04:35:42.939Z,429.00
2023-01-25T04:36:43.114Z,430.00
2023-01-25T04:37:42.924Z,430.00
2023-01-25T04:38:42.937Z,432.00
2023-01-25T04:39:42.888Z,430.00
2023-01-25T04:40:42.975Z,431.00
2023-01-25T04:41:44.716Z,430.00
2023-01-25T04:42:43.005Z,427.00
2023-01-25T04:43:42.843Z,426.00
2023-01-25T04:44:42.948Z,425.00
2023-01-25T04:45:42.831Z,426.00
2023-01-25T04:46:42.877Z,424.00
2023-01-25T04:47:42.777Z,421.00
2023-01-25T04:48:42.818Z,422.00
2023-01-25T04:49:42.756Z,426.00
2023-01-25T04:50:42.848Z,425.00
2023-01-25T04:51:42.713Z,426.00
2023-01-25T04:52:42.888Z,428.00
2023-01-25T04:53:42.694Z,425.00
2023-01-25T04:55:05.805Z,424.00
2023-01-25T04:55:42.663Z,422.00
2023-01-25T04:56:42.753Z,423.00
2023-01-25T04:57:42.641Z,423.00
2023-01-25T04:58:43.715Z,425.00
2023-01-25T04:59:42.606Z,426.00
2023-01-25T05:00:42.963Z,426.00
2023-01-25T05:01:42.603Z,427.00
2023-01-25T05:02:42.791Z,425.00
2023-01-25T05:03:42.555Z,425.00
2023-01-25T05:04:42.696Z,424.00
2023-01-25T05:05:42.526Z,425.00
2023-01-25T05:06:42.584Z,425.00
2023-01-25T05:07:42.503Z,422.00
2023-01-25T05:08:42.568Z,425.00
2023-01-25T05:09:42.472Z,423.00
2023-01-25T05:10:42.616Z,423.00
2023-01-25T05:11:42.452Z,423.00
2023-01-25T05:12:42.583Z,424.00
2023-01-25T05:13:42.421Z,424.00
2023-01-25T05:14:44.575Z,423.00
2023-01-25T05:15:42.411Z,421.00
2023-01-25T05:16:43.595Z,421.00
2023-01-25T05:17:42.384Z,423.00
2023-01-25T05:18:48.885Z,423.00
2023-01-25T05:19:43.342Z,423.00
2023-01-25T05:20:42.488Z,422.00
2023-01-25T05:21:44.671Z,425.00
2023-01-25T05:22:42.523Z,425.00
2023-01-25T05:23:42.294Z,424.00
2023-01-25T05:24:42.398Z,422.00
2023-01-25T05:25:42.273Z,423.00
2023-01-25T05:26:42.379Z,424.00
2023-01-25T05:27:42.243Z,423.00
2023-01-25T05:28:42.310Z,428.00
2023-01-25T05:29:42.218Z,428.00
2023-01-25T05:30:42.465Z,428.00
2023-01-25T05:31:42.197Z,428.00
2023-01-25T05:32:42.287Z,429.00
2023-01-25T05:33:42.160Z,430.00
2023-01-25T05:34:42.219Z,427.00
2023-01-25T05:35:42.139Z,427.00
2023-01-25T05:36:42.210Z,427.00
2023-01-25T05:37:42.114Z,428.00
2023-01-25T05:38:43.219Z,424.00
2023-01-25T05:39:42.079Z,426.00
2023-01-25T05:40:42.247Z,428.00
2023-01-25T05:41:42.057Z,431.00
2023-01-25T05:42:42.108Z,429.00
2023-01-25T05:43:42.028Z,431.00
2023-01-25T05:45:51.612Z,462.00
2023-01-25T05:46:51.376Z,433.00
2023-01-25T05:47:54.639Z,430.00
2023-01-25T05:48:51.351Z,428.00
2023-01-25T05:49:52.481Z,428.00
2023-01-25T05:50:51.325Z,430.00
2023-01-25T05:51:51.393Z,429.00
2023-01-25T05:52:51.288Z,428.00
2023-01-25T05:53:51.476Z,428.00
2023-01-25T05:54:51.274Z,428.00
2023-01-25T05:55:51.477Z,428.00
2023-01-25T05:56:51.247Z,423.00
2023-01-25T05:57:51.297Z,423.00
2023-01-25T05:58:51.218Z,422.00
2023-01-25T05:59:51.382Z,422.00
2023-01-25T06:00:51.188Z,420.00
2023-01-25T06:01:52.286Z,419.00
2023-01-25T06:02:51.330Z,419.00
2023-01-25T06:03:51.207Z,417.00
2023-01-25T06:04:51.140Z,418.00
2023-01-25T06:05:51.189Z,417.00
2023-01-25T06:06:51.114Z,416.00
2023-01-25T06:07:51.142Z,416.00
2023-01-25T06:08:51.087Z,416.00
2023-01-25T06:09:51.150Z,417.00
2023-01-25T06:10:51.075Z,418.00
2023-01-25T06:11:51.118Z,422.00
2023-01-25T06:12:51.047Z,423.00
2023-01-25T06:13:51.112Z,423.00
2023-01-25T06:14:51.005Z,423.00
2023-01-25T06:15:51.109Z,423.00
2023-01-25T06:16:50.987Z,423.00
2023-01-25T06:17:51.065Z,420.00
2023-01-25T06:18:50.947Z,420.00
2023-01-25T06:19:51.017Z,419.00
2023-01-25T06:20:50.924Z,419.00
2023-01-25T06:21:51.002Z,419.00
2023-01-25T06:22:50.904Z,418.00
2023-01-25T06:23:51.054Z,421.00
2023-01-25T06:24:50.877Z,419.00
2023-01-25T06:25:50.955Z,419.00
2023-01-25T06:26:50.854Z,420.00
2023-01-25T06:27:50.894Z,419.00
2023-01-25T06:28:52.677Z,420.00
2023-01-25T06:29:50.935Z,419.00
2023-01-25T06:30:50.868Z,418.00
2023-01-25T06:31:50.861Z,421.00
2023-01-25T06:32:50.774Z,421.00
2023-01-25T06:33:50.811Z,419.00
2023-01-25T06:34:50.756Z,418.00
2023-01-25T06:35:50.782Z,416.00
2023-01-25T06:36:50.742Z,416.00
2023-01-25T06:37:50.761Z,419.00
2023-01-25T06:38:50.731Z,420.00
2023-01-25T06:39:50.767Z,419.00
2023-01-25T06:40:50.672Z,419.00
2023-01-25T06:41:50.782Z,421.00
2023-01-25T06:42:50.642Z,421.00
2023-01-25T06:43:50.683Z,422.00
2023-01-25T06:44:50.619Z,421.00
2023-01-25T06:45:50.692Z,421.00
2023-01-25T06:46:50.658Z,420.00
2023-01-25T06:47:50.661Z,421.00
2023-01-25T06:48:50.563Z,421.00
2023-01-25T06:49:50.624Z,419.00
2023-01-25T06:50:50.539Z,419.00
2023-01-25T06:51:50.589Z,420.00
2023-01-25T06:52:50.503Z,423.00
2023-01-25T06:53:50.600Z,421.00
2023-01-25T06:54:50.473Z,422.00
2023-01-25T06:55:50.573Z,423.00
2023-01-25T06:56:50.451Z,426.00
2023-01-25T06:57:50.472Z,428.00
2023-01-25T06:58:50.438Z,429.00
2023-01-25T06:59:50.555Z,429.00
2023-01-25T07:00:50.391Z,428.00
2023-01-25T07:01:51.600Z,427.00
2023-01-25T07:02:50.431Z,425.00
2023-01-25T07:03:50.425Z,423.00
2023-01-25T07:04:50.357Z,425.00
2023-01-25T07:05:50.410Z,421.00
2023-01-25T07:06:50.330Z,421.00
2023-01-25T07:07:50.348Z,421.00
2023-01-25T07:08:50.301Z,420.00
2023-01-25T07:09:50.373Z,423.00
2023-01-25T07:10:50.281Z,422.00
2023-01-25T07:11:50.341Z,422.00
2023-01-25T07:12:50.259Z,424.00
2023-01-25T07:13:50.279Z,425.00
2023-01-25T07:14:50.333Z,427.00
2023-01-25T07:15:50.347Z,425.00
2023-01-25T07:16:50.189Z,425.00
2023-01-25T07:17:50.272Z,424.00
2023-01-25T07:18:50.173Z,423.00
2023-01-25T07:19:50.231Z,424.00
2023-01-25T07:20:50.138Z,424.00
2023-01-25T07:21:50.154Z,422.00
2023-01-25T07:22:50.108Z,421.00
2023-01-25T07:23:51.308Z,421.00
2023-01-25T07:24:50.092Z,425.00
2023-01-25T07:25:50.177Z,423.00
2023-01-25T07:26:50.069Z,424.00
2023-01-25T07:27:50.087Z,423.00
2023-01-25T07:28:50.041Z,425.00
2023-01-25T07:29:50.181Z,425.00
2023-01-25T07:30:50.007Z,423.00
2023-01-25T07:31:50.037Z,424.00
2023-01-25T07:32:49.980Z,422.00
2023-01-25T07:33:51.057Z,424.00
2023-01-25T07:34:49.947Z,424.00
2023-01-25T07:35:49.999Z,425.00
2023-01-25T07:36:49.932Z,425.00
2023-01-25T07:37:50.981Z,423.00
2023-01-25T07:38:49.904Z,421.00
2023-01-25T07:39:49.990Z,420.00
2023-01-25T07:40:49.879Z,419.00
2023-01-25T07:41:49.925Z,420.00
2023-01-25T07:42:49.844Z,423.00
2023-01-25T07:43:49.906Z,424.00
2023-01-25T07:44:49.826Z,420.00
2023-01-25T07:45:50.078Z,419.00
2023-01-25T07:46:49.795Z,422.00
2023-01-25T07:47:51.024Z,422.00
2023-01-25T07:48:49.773Z,422.00
2023-01-25T07:49:49.835Z,421.00
2023-01-25T07:50:49.777Z,419.00
2023-01-25T07:51:49.747Z,419.00
2023-01-25T07:52:49.724Z,419.00
2023-01-25T07:53:49.824Z,417.00
2023-01-25T07:54:49.696Z,418.00
2023-01-25T07:55:50.695Z,420.00
2023-01-25T07:56:49.663Z,420.00
2023-01-25T07:57:49.686Z,421.00
2023-01-25T07:58:49.642Z,421.00
2023-01-25T07:59:49.762Z,421.00
2023-01-25T08:00:49.622Z,420.00
2023-01-25T08:01:49.631Z,420.00
2023-01-25T08:02:49.614Z,417.00
2023-01-25T08:03:50.001Z,418.00
2023-01-25T08:04:49.674Z,418.00
2023-01-25T08:05:49.766Z,419.00
2023-01-25T08:06:49.541Z,417.00
2023-01-25T08:07:49.562Z,418.00
2023-01-25T08:08:49.509Z,416.00
2023-01-25T08:09:49.574Z,416.00
2023-01-25T08:10:49.502Z,418.00
2023-01-25T08:11:49.852Z,419.00
2023-01-25T08:12:49.566Z,423.00
2023-01-25T08:13:50.628Z,421.00
2023-01-25T08:14:49.514Z,419.00
2023-01-25T08:15:49.512Z,418.00
2023-01-25T08:16:49.471Z,416.00
2023-01-25T08:17:49.611Z,415.00
2023-01-25T08:18:49.420Z,415.00
2023-01-25T08:19:49.495Z,416.00
2023-01-25T08:20:49.354Z,415.00
2023-01-25T08:21:49.388Z,415.00
2023-01-25T08:22:49.332Z,416.00
2023-01-25T08:23:49.458Z,414.00
2023-01-25T08:24:49.299Z,414.00
2023-01-25T08:25:49.385Z,414.00
2023-01-25T08:26:49.271Z,415.00
2023-01-25T08:27:49.290Z,418.00
2023-01-25T08:28:49.240Z,417.00
2023-01-25T08:29:49.350Z,422.00
2023-01-25T08:30:57.199Z,423.00
2023-01-25T08:31:50.208Z,422.00
2023-01-25T08:32:49.230Z,422.00
2023-01-25T08:33:49.171Z,418.00
2023-01-25T08:34:49.239Z,418.00
2023-01-25T08:35:49.168Z,418.00
2023-01-25T08:36:49.152Z,418.00
2023-01-25T08:37:49.126Z,414.00
2023-01-25T08:38:49.179Z,419.00
2023-01-25T08:39:49.100Z,418.00
2023-01-25T08:40:49.192Z,422.00
2023-01-25T08:41:49.152Z,422.00
2023-01-25T08:42:49.095Z,422.00
2023-01-25T08:43:49.039Z,424.00
2023-01-25T08:44:49.231Z,424.00
2023-01-25T08:45:49.010Z,425.00
2023-01-25T08:46:49.048Z,422.00
2023-01-25T08:47:49.013Z,423.00
2023-01-25T08:48:49.068Z,421.00
2023-01-25T08:49:49.017Z,420.00
2023-01-25T08:50:49.049Z,420.00
2023-01-25T08:51:48.936Z,420.00
2023-01-25T08:52:48.969Z,417.00
2023-01-25T08:53:48.936Z,418.00
2023-01-25T08:54:48.974Z,421.00
2023-01-25T08:55:48.886Z,418.00
2023-01-25T08:56:48.887Z,417.00
2023-01-25T08:57:48.866Z,416.00
2023-01-25T08:58:48.908Z,414.00
2023-01-25T08:59:48.848Z,417.00
2023-01-25T09:00:48.926Z,420.00
2023-01-25T09:01:48.796Z,422.00
2023-01-25T09:02:48.837Z,422.00
2023-01-25T09:03:48.842Z,422.00
2023-01-25T09:04:48.846Z,422.00
2023-01-25T09:05:48.767Z,420.00
2023-01-25T09:06:48.846Z,421.00
2023-01-25T09:07:48.727Z,420.00
2023-01-25T09:08:48.769Z,419.00
2023-01-25T09:09:48.704Z,422.00
2023-01-25T09:10:48.799Z,423.00
2023-01-25T09:11:48.688Z,425.00
2023-01-25T09:12:48.696Z,426.00
2023-01-25T09:13:48.646Z,425.00
2023-01-25T09:14:48.707Z,424.00
2023-01-25T09:15:48.625Z,424.00
2023-01-25T09:16:48.724Z,425.00
2023-01-25T09:17:48.605Z,423.00
2023-01-25T09:18:50.692Z,421.00
2023-01-25T09:19:48.576Z,421.00
2023-01-25T09:20:48.654Z,422.00
2023-01-25T09:21:48.557Z,420.00
2023-01-25T09:22:48.571Z,422.00
2023-01-25T09:24:05.561Z,421.00
2023-01-25T09:24:49.516Z,421.00
2023-01-25T09:25:48.592Z,420.00
2023-01-25T09:26:59.096Z,419.00
2023-01-25T09:27:49.469Z,421.00
2023-01-25T09:28:48.513Z,424.00
2023-01-25T09:30:00.888Z,422.00
2023-01-25T09:31:03.303Z,421.00
2023-01-25T09:31:49.474Z,421.00
2023-01-25T09:32:48.608Z,420.00
2023-01-25T09:33:48.443Z,420.00
2023-01-25T09:34:48.372Z,420.00
2023-01-25T09:35:48.413Z,420.00
2023-01-25T09:36:48.356Z,419.00
2023-01-25T09:37:48.366Z,418.00
2023-01-25T09:38:48.316Z,418.00
2023-01-25T09:39:48.407Z,418.00
2023-01-25T09:40:48.326Z,418.00
2023-01-25T09:41:48.343Z,416.00
2023-01-25T09:42:48.273Z,418.00
2023-01-25T09:43:49.583Z,420.00
2023-01-25T09:44:48.245Z,421.00
2023-01-25T09:45:48.533Z,419.00
2023-01-25T09:46:48.222Z,421.00
2023-01-25T09:47:49.578Z,419.00
2023-01-25T09:48:50.179Z,419.00
2023-01-25T09:49:49.175Z,419.00
2023-01-25T09:50:48.251Z,420.00
2023-01-25T09:51:48.150Z,421.00
2023-01-25T09:52:48.270Z,423.00
2023-01-25T09:53:48.201Z,421.00
2023-01-25T09:54:48.218Z,423.00
2023-01-25T09:55:48.110Z,422.00
2023-01-25T09:56:48.101Z,423.00
2023-01-25T09:57:48.101Z,423.00
2023-01-25T09:58:48.128Z,423.00
2023-01-25T09:59:48.060Z,424.00
2023-01-25T10:00:48.169Z,422.00
2023-01-25T10:01:48.060Z,422.00
2023-01-25T10:02:48.171Z,420.00
2023-01-25T10:03:47.997Z,420.00
2023-01-25T10:04:48.059Z,419.00
2023-01-25T10:05:48.037Z,418.00
2023-01-25T10:06:59.712Z,419.00
2023-01-25T10:07:48.938Z,421.00
2023-01-25T10:08:48.128Z,417.00
2023-01-25T10:09:47.926Z,417.00
2023-01-25T10:10:47.993Z,418.00
2023-01-25T10:11:47.902Z,420.00
2023-01-25T10:12:47.908Z,417.00
2023-01-25T10:13:47.873Z,417.00
2023-01-25T10:14:47.920Z,417.00
2023-01-25T10:15:47.852Z,414.00
2023-01-25T10:16:48.042Z,415.00
2023-01-25T10:17:47.830Z,418.00
2023-01-25T10:18:47.863Z,418.00
2023-01-25T10:19:47.778Z,419.00
2023-01-25T10:20:47.888Z,421.00
2023-01-25T10:21:47.748Z,417.00
2023-01-25T10:22:47.901Z,416.00
2023-01-25T10:23:47.771Z,419.00
2023-01-25T10:24:47.798Z,417.00
2023-01-25T10:25:47.698Z,421.00
2023-01-25T10:26:47.797Z,418.00
2023-01-25T10:27:47.681Z,420.00
2023-01-25T10:28:47.716Z,420.00
2023-01-25T10:29:47.770Z,422.00
2023-01-25T10:30:47.756Z,424.00
2023-01-25T10:31:47.648Z,421.00
2023-01-25T10:32:55.873Z,420.00
2023-01-25T10:33:48.613Z,421.00
2023-01-25T10:34:56.402Z,421.00
2023-01-25T10:35:48.697Z,422.00
2023-01-25T10:36:47.675Z,423.00
2023-01-25T10:37:47.544Z,423.00
2023-01-25T10:38:47.613Z,426.00
2023-01-25T10:39:47.597Z,426.00
2023-01-25T10:40:48.535Z,424.00
2023-01-25T10:41:48.228Z,426.00
2023-01-25T10:42:47.515Z,427.00
2023-01-25T10:43:47.496Z,426.00
2023-01-25T10:44:47.530Z,421.00
2023-01-25T10:45:47.447Z,421.00
2023-01-25T10:46:47.455Z,422.00
2023-01-25T10:47:47.424Z,420.00
2023-01-25T10:48:47.465Z,421.00
2023-01-25T10:49:47.416Z,420.00
2023-01-25T10:50:47.515Z,420.00
2023-01-25T10:51:47.374Z,422.00
2023-01-25T10:52:47.386Z,420.00
2023-01-25T10:53:47.344Z,420.00
2023-01-25T10:54:47.405Z,419.00
2023-01-25T10:55:47.304Z,420.00
2023-01-25T10:56:47.432Z,420.00
2023-01-25T10:57:47.283Z,423.00
2023-01-25T10:58:47.322Z,422.00
2023-01-25T10:59:47.309Z,421.00
2023-01-25T11:00:48.363Z,421.00
2023-01-25T11:01:47.254Z,419.00
2023-01-25T11:02:47.321Z,417.00
2023-01-25T11:03:47.205Z,420.00
2023-01-25T11:04:47.263Z,418.00
2023-01-25T11:05:47.202Z,418.00
2023-01-25T11:06:47.275Z,419.00
2023-01-25T11:07:47.153Z,418.00
2023-01-25T11:08:47.184Z,417.00
2023-01-25T11:09:47.218Z,419.00
2023-01-25T11:10:47.202Z,418.00
2023-01-25T11:11:47.123Z,417.00
2023-01-25T11:12:47.141Z,416.00
2023-01-25T11:13:47.070Z,417.00
2023-01-25T11:14:49.117Z,416.00
2023-01-25T11:15:47.070Z,416.00
2023-01-25T11:16:47.142Z,415.00
2023-01-25T11:17:47.050Z,415.00
2023-01-25T11:18:47.772Z,413.00
2023-01-25T11:19:47.016Z,413.00
2023-01-25T11:20:47.069Z,414.00
2023-01-25T11:21:46.990Z,415.00
2023-01-25T11:22:46.984Z,413.00
2023-01-25T11:23:49.105Z,416.00
2023-01-25T11:24:46.995Z,416.00
2023-01-25T11:25:46.920Z,416.00
2023-01-25T11:26:47.012Z,416.00
2023-01-25T11:27:46.882Z,417.00
2023-01-25T11:28:46.920Z,419.00
2023-01-25T11:29:47.046Z,417.00
2023-01-25T11:30:47.026Z,416.00
2023-01-25T11:31:46.891Z,417.00
2023-01-25T11:32:46.844Z,419.00
2023-01-25T11:33:46.816Z,419.00
2023-01-25T11:34:46.862Z,418.00
2023-01-25T11:35:46.801Z,417.00
2023-01-25T11:36:46.888Z,416.00
2023-01-25T11:37:46.748Z,414.00
2023-01-25T11:38:46.798Z,414.00
2023-01-25T11:39:46.727Z,412.00
2023-01-25T11:40:46.814Z,412.00
2023-01-25T11:41:46.716Z,413.00
2023-01-25T11:42:46.722Z,418.00
2023-01-25T11:43:46.668Z,418.00
2023-01-25T11:44:46.735Z,419.00
2023-01-25T11:45:46.651Z,420.00
2023-01-25T11:46:46.834Z,420.00
2023-01-25T11:47:46.637Z,420.00
2023-01-25T11:48:46.662Z,419.00
2023-01-25T11:49:46.614Z,420.00
2023-01-25T11:50:46.727Z,420.00
2023-01-25T11:51:46.605Z,421.00
2023-01-25T11:52:46.625Z,421.00
2023-01-25T11:53:46.582Z,423.00
2023-01-25T11:54:47.639Z,421.00
2023-01-25T11:55:46.613Z,420.00
2023-01-25T11:56:46.621Z,418.00
2023-01-25T11:57:46.494Z,419.00
2023-01-25T11:58:48.634Z,419.00
2023-01-25T11:59:46.473Z,421.00
2023-01-25T12:00:46.556Z,420.00
2023-01-25T12:01:46.469Z,420.00
2023-01-25T12:02:48.643Z,421.00
2023-01-25T12:03:46.421Z,420.00
2023-01-25T12:04:46.508Z,420.00
2023-01-25T12:05:46.571Z,421.00
2023-01-25T12:06:47.412Z,421.00
2023-01-25T12:07:46.417Z,422.00
2023-01-25T12:08:46.399Z,422.00
2023-01-25T12:09:46.357Z,422.00
2023-01-25T12:10:46.427Z,420.00
2023-01-25T12:11:46.335Z,420.00
2023-01-25T12:12:46.316Z,418.00
2023-01-25T12:13:46.278Z,420.00
2023-01-25T12:14:46.338Z,422.00
2023-01-25T12:15:46.461Z,422.00
2023-01-25T12:16:46.345Z,421.00
2023-01-25T12:17:46.245Z,420.00
2023-01-25T12:18:47.298Z,419.00
2023-01-25T12:19:46.224Z,420.00
2023-01-25T12:20:46.280Z,417.00
2023-01-25T12:21:46.234Z,418.00
2023-01-25T12:22:46.194Z,420.00
2023-01-25T12:23:46.296Z,421.00
2023-01-25T12:24:46.204Z,415.00
2023-01-25T12:25:46.209Z,417.00
2023-01-25T12:26:46.269Z,416.00
2023-01-25T12:27:46.144Z,417.00
2023-01-25T12:28:46.145Z,416.00
2023-01-25T12:29:46.103Z,417.00
2023-01-25T12:30:46.185Z,417.00
2023-01-25T12:31:46.149Z,418.00
2023-01-25T12:32:46.066Z,417.00